createdAt,value
2018-12-10T00:00:06.886Z,6.98
2018-12-10T00:02:34.268Z,7.23
2018-12-10T00:05:01.664Z,7.17
2018-12-10T00:07:29.040Z,6.88
2018-12-10T00:09:56.427Z,6.95
2018-12-10T00:12:23.803Z,7.01
2018-12-10T00:14:51.198Z,7.00
2018-12-10T00:17:18.580Z,7.12
2018-12-10T00:19:45.980Z,7.20
2018-12-10T00:22:13.368Z,7.12
2018-12-10T00:24:40.769Z,7.17
2018-12-10T00:27:08.177Z,7.20
2018-12-10T00:29:35.571Z,7.23
2018-12-10T00:32:02.956Z,7.16
2018-12-10T00:34:30.352Z,7.25
2018-12-10T00:36:57.746Z,7.12
2018-12-10T00:39:25.214Z,7.27
2018-12-10T00:41:52.596Z,7.35
2018-12-10T00:44:19.980Z,7.27
2018-12-10T00:46:47.381Z,7.31
2018-12-10T00:49:14.761Z,7.38
2018-12-10T00:51:42.143Z,7.16
2018-12-10T00:54:09.529Z,7.15
2018-12-10T00:56:36.925Z,7.18
2018-12-10T00:59:04.306Z,7.33
2018-12-10T01:01:31.696Z,7.16
2018-12-10T01:03:59.088Z,7.19
2018-12-10T01:06:26.476Z,7.20
2018-12-10T01:08:53.853Z,7.17
2018-12-10T01:11:21.248Z,7.13
2018-12-10T01:13:48.627Z,6.98
2018-12-10T01:16:16.011Z,7.02
2018-12-10T01:18:43.416Z,6.90
2018-12-10T01:21:10.863Z,6.97
2018-12-10T01:23:38.271Z,7.13
2018-12-10T01:26:05.657Z,7.03
2018-12-10T01:28:33.048Z,7.00
2018-12-10T01:31:03.544Z,7.14
2018-12-10T01:33:30.929Z,6.98
2018-12-10T01:35:58.305Z,7.21
2018-12-10T01:38:25.697Z,7.02
2018-12-10T01:40:53.084Z,7.03
2018-12-10T01:43:20.476Z,6.98
2018-12-10T01:45:47.857Z,7.00
2018-12-10T01:48:15.248Z,7.17
2018-12-10T01:50:42.640Z,6.99
2018-12-10T01:53:10.067Z,7.05
2018-12-10T01:55:37.452Z,7.14
2018-12-10T01:58:04.843Z,6.99
2018-12-10T02:00:32.232Z,6.94
2018-12-10T02:02:59.619Z,6.98
2018-12-10T02:05:27.007Z,6.78
2018-12-10T02:07:55.400Z,6.76
2018-12-10T02:10:22.795Z,6.88
2018-12-10T02:12:50.210Z,6.87
2018-12-10T02:15:17.635Z,6.75
2018-12-10T02:17:45.020Z,6.74
2018-12-10T02:20:12.404Z,6.77
2018-12-10T02:22:39.793Z,6.84
2018-12-10T02:25:07.273Z,7.05
2018-12-10T02:27:34.711Z,6.78
2018-12-10T02:30:02.114Z,6.89
2018-12-10T02:32:29.630Z,6.96
2018-12-10T02:34:57.153Z,6.91
2018-12-10T02:37:24.517Z,6.92
2018-12-10T02:39:51.911Z,6.86
2018-12-10T02:42:19.296Z,6.90
2018-12-10T02:44:46.733Z,6.97
2018-12-10T02:47:14.121Z,6.90
2018-12-10T02:49:41.587Z,6.70
2018-12-10T02:52:08.973Z,6.68
2018-12-10T02:54:36.358Z,6.75
2018-12-10T02:57:03.868Z,6.86
2018-12-10T02:59:31.248Z,6.65
2018-12-10T03:01:58.713Z,6.75
2018-12-10T03:04:26.225Z,6.76
2018-12-10T03:06:53.614Z,6.88
2018-12-10T03:09:21.073Z,6.84
2018-12-10T03:11:48.478Z,6.96
2018-12-10T03:14:15.861Z,6.86
2018-12-10T03:16:43.228Z,6.84
2018-12-10T03:19:10.612Z,6.84
2018-12-10T03:21:38.005Z,6.69
2018-12-10T03:24:05.393Z,6.77
2018-12-10T03:26:32.776Z,6.91
2018-12-10T03:29:00.169Z,6.75
2018-12-10T03:31:27.547Z,6.92
2018-12-10T03:33:54.930Z,6.91
2018-12-10T03:36:22.310Z,6.95
2018-12-10T03:38:49.684Z,6.94
2018-12-10T03:41:17.076Z,6.94
2018-12-10T03:43:44.661Z,6.86
2018-12-10T03:46:12.120Z,6.71
2018-12-10T03:48:39.521Z,6.74
2018-12-10T03:51:06.900Z,6.50
2018-12-10T03:56:06.497Z,6.66
2018-12-10T03:58:34.000Z,6.61
2018-12-10T04:01:01.379Z,6.66
2018-12-10T04:03:28.763Z,6.65
2018-12-10T04:05:56.147Z,6.76
2018-12-10T04:08:23.532Z,6.67
2018-12-10T04:10:50.927Z,6.71
2018-12-10T04:13:18.321Z,6.70
2018-12-10T04:15:45.742Z,6.59
2018-12-10T04:18:13.197Z,6.69
2018-12-10T04:20:40.583Z,6.67
2018-12-10T04:23:07.973Z,6.67
2018-12-10T04:25:35.361Z,6.70
2018-12-10T04:28:02.784Z,6.76
2018-12-10T04:30:30.242Z,6.54
2018-12-10T04:32:57.623Z,6.65
2018-12-10T04:35:25.011Z,6.76
2018-12-10T04:37:52.383Z,6.55
2018-12-10T04:40:19.796Z,6.64
2018-12-10T04:42:47.259Z,6.49
2018-12-10T04:45:14.691Z,6.56
2018-12-10T04:47:42.073Z,6.66
2018-12-10T04:50:09.512Z,6.69
2018-12-10T04:52:36.896Z,6.58
2018-12-10T04:55:04.977Z,6.54
2018-12-10T04:57:32.444Z,6.35
2018-12-10T04:59:59.872Z,6.46
2018-12-10T05:02:27.319Z,6.49
2018-12-10T05:04:54.712Z,6.62
2018-12-10T05:07:22.104Z,6.65
2018-12-10T05:09:49.480Z,6.58
2018-12-10T05:12:16.881Z,6.50
2018-12-10T05:14:44.264Z,6.62
2018-12-10T05:17:11.834Z,6.74
2018-12-10T05:19:39.309Z,6.54
2018-12-10T05:22:06.687Z,6.66
2018-12-10T05:24:34.120Z,6.60
2018-12-10T05:27:01.511Z,6.50
2018-12-10T05:29:28.880Z,6.65
2018-12-10T05:31:56.268Z,6.48
2018-12-10T05:34:23.649Z,6.48
2018-12-10T05:36:51.041Z,6.52
2018-12-10T05:39:18.501Z,6.48
2018-12-10T05:41:45.887Z,6.66
2018-12-10T05:44:13.277Z,6.56
2018-12-10T05:46:40.660Z,6.58
2018-12-10T05:49:08.080Z,6.60
2018-12-10T05:51:35.475Z,6.59
2018-12-10T05:54:02.858Z,6.62
2018-12-10T05:56:30.239Z,6.58
2018-12-10T05:58:57.636Z,6.49
2018-12-10T06:01:25.020Z,6.62
2018-12-10T06:03:56.322Z,6.54
2018-12-10T06:06:23.707Z,6.51
2018-12-10T06:08:51.184Z,6.46
2018-12-10T06:11:18.572Z,6.61
2018-12-10T06:13:46.173Z,6.42
2018-12-10T06:16:13.551Z,6.65
2018-12-10T06:18:40.939Z,6.43
2018-12-10T06:21:08.321Z,6.46
2018-12-10T06:23:37.703Z,6.55
2018-12-10T06:26:05.083Z,6.78
2018-12-10T06:28:32.468Z,6.78
2018-12-10T06:30:59.852Z,6.74
2018-12-10T06:33:27.227Z,6.79
2018-12-10T06:35:54.625Z,6.46
2018-12-10T06:38:22.069Z,6.58
2018-12-10T06:40:49.454Z,6.82
2018-12-10T06:43:16.835Z,6.58
2018-12-10T06:45:44.304Z,6.66
2018-12-10T06:48:11.908Z,6.47
2018-12-10T06:50:39.275Z,6.46
2018-12-10T06:53:07.601Z,6.38
2018-12-10T06:55:34.978Z,6.34
2018-12-10T06:58:02.360Z,6.43
2018-12-10T07:00:29.746Z,6.43
2018-12-10T07:02:57.125Z,6.53
2018-12-10T07:05:30.318Z,6.50
2018-12-10T07:11:00.460Z,6.49
2018-12-10T07:13:33.942Z,6.56
2018-12-10T07:16:05.053Z,6.33
2018-12-10T07:18:39.717Z,6.46
2018-12-10T07:21:07.096Z,6.39
2018-12-10T07:23:34.496Z,6.40
2018-12-10T07:26:01.976Z,6.42
2018-12-10T07:28:29.402Z,6.42
2018-12-10T07:30:56.790Z,6.31
2018-12-10T07:33:24.195Z,6.45
2018-12-10T07:35:51.585Z,6.47
2018-12-10T07:38:18.974Z,6.42
2018-12-10T07:40:46.365Z,6.38
2018-12-10T07:43:19.439Z,6.46
2018-12-10T07:45:50.649Z,6.38
2018-12-10T07:48:20.948Z,6.51
2018-12-10T07:50:54.392Z,6.56
2018-12-10T07:56:28.772Z,6.62
2018-12-10T07:58:50.649Z,6.56
2018-12-10T08:01:24.476Z,6.48
2018-12-10T08:03:51.852Z,6.53
2018-12-10T08:06:21.200Z,6.59
2018-12-10T08:08:50.285Z,6.43
2018-12-10T08:11:17.866Z,6.57
2018-12-10T08:13:45.260Z,6.53
2018-12-10T08:16:12.763Z,6.37
2018-12-10T08:18:40.158Z,6.56
2018-12-10T08:21:07.532Z,6.64
2018-12-10T08:23:34.921Z,6.63
2018-12-10T08:26:02.309Z,6.75
2018-12-10T08:28:46.626Z,6.47
2018-12-10T08:31:26.531Z,6.51
2018-12-10T08:33:53.997Z,6.66
2018-12-10T08:36:21.499Z,6.68
2018-12-10T08:38:48.964Z,6.58
2018-12-10T08:41:16.349Z,6.85
2018-12-10T08:43:43.727Z,6.88
2018-12-10T08:46:11.214Z,6.58
2018-12-10T08:48:50.890Z,6.51
2018-12-10T08:51:18.306Z,6.41
2018-12-10T08:56:45.000Z,6.37
2018-12-10T08:59:12.513Z,6.60
2018-12-10T09:01:40.002Z,6.62
2018-12-10T09:04:07.534Z,6.70
2018-12-10T09:06:34.936Z,6.59
2018-12-10T09:09:02.330Z,6.79
2018-12-10T09:11:29.707Z,6.85
2018-12-10T09:13:57.093Z,6.76
2018-12-10T09:16:25.484Z,6.68
2018-12-10T09:18:52.872Z,6.51
2018-12-10T09:21:20.263Z,6.54
2018-12-10T09:23:47.663Z,6.70
2018-12-10T09:26:15.049Z,6.80
2018-12-10T09:28:42.451Z,6.70
2018-12-10T09:31:09.851Z,6.81
2018-12-10T09:33:40.552Z,6.96
2018-12-10T09:36:07.989Z,6.80
2018-12-10T09:38:35.402Z,7.07
2018-12-10T09:41:02.777Z,6.93
2018-12-10T09:43:30.188Z,6.86
2018-12-10T09:45:57.668Z,7.05
2018-12-10T09:48:41.832Z,6.85
2018-12-10T09:51:09.212Z,6.86
2018-12-10T09:53:36.604Z,6.71
2018-12-10T09:56:12.519Z,6.94
2018-12-10T09:58:46.106Z,6.90
2018-12-10T10:01:19.684Z,6.93
2018-12-10T10:03:48.027Z,7.12
2018-12-10T10:09:14.092Z,7.14
2018-12-10T10:11:41.467Z,7.39
2018-12-10T10:14:14.844Z,7.34
2018-12-10T10:16:54.929Z,7.25
2018-12-10T10:19:22.323Z,7.50
2018-12-10T10:21:49.700Z,7.32
2018-12-10T10:24:17.093Z,7.35
2018-12-10T10:26:44.488Z,7.37
2018-12-10T10:29:17.680Z,7.48
2018-12-10T10:31:45.063Z,7.49
2018-12-10T10:34:12.443Z,7.26
2018-12-10T10:36:39.885Z,7.31
2018-12-10T10:39:07.329Z,7.26
2018-12-10T10:41:41.404Z,7.57
2018-12-10T10:44:13.092Z,7.29
2018-12-10T10:46:40.539Z,7.42
2018-12-10T10:49:07.917Z,7.35
2018-12-10T10:51:35.314Z,7.34
2018-12-10T10:54:02.693Z,7.49
2018-12-10T10:56:30.357Z,7.32
2018-12-10T10:58:57.749Z,7.53
2018-12-10T11:01:44.179Z,7.51
2018-12-10T11:04:11.575Z,7.56
2018-12-10T11:06:39.036Z,7.65
2018-12-10T11:09:15.033Z,7.57
2018-12-10T11:11:36.637Z,7.65
2018-12-10T11:14:04.065Z,7.74
2018-12-10T11:16:31.455Z,7.51
2018-12-10T11:18:58.909Z,7.68
2018-12-10T11:21:29.995Z,7.58
2018-12-10T11:23:57.404Z,7.46
2018-12-10T11:26:24.785Z,7.44
2018-12-10T11:28:58.028Z,7.11
2018-12-10T11:31:25.400Z,7.30
2018-12-10T11:33:52.809Z,7.40
2018-12-10T11:36:20.192Z,7.31
2018-12-10T11:38:47.595Z,7.18
2018-12-10T11:41:14.972Z,7.29
2018-12-10T11:43:42.355Z,7.34
2018-12-10T11:46:15.144Z,7.20
2018-12-10T11:48:42.529Z,7.09
2018-12-10T11:51:10.012Z,7.16
2018-12-10T11:53:37.425Z,7.08
2018-12-10T11:56:04.804Z,7.29
2018-12-10T11:58:34.912Z,7.38
2018-12-10T12:01:02.527Z,7.64
2018-12-10T12:03:31.843Z,7.55
2018-12-10T12:05:59.296Z,7.56
2018-12-10T12:08:27.679Z,7.65
2018-12-10T12:10:55.073Z,7.63
2018-12-10T12:13:22.455Z,7.68
2018-12-10T12:15:49.837Z,7.84
2018-12-10T12:18:17.220Z,7.88
2018-12-10T12:20:44.650Z,7.77
2018-12-10T12:23:12.088Z,7.68
2018-12-10T12:25:39.475Z,7.67
2018-12-10T12:28:06.943Z,7.79
2018-12-10T12:30:34.331Z,7.86
2018-12-10T12:33:01.719Z,7.99
2018-12-10T12:35:29.374Z,7.73
2018-12-10T12:37:56.752Z,7.78
2018-12-10T12:40:24.133Z,7.66
2018-12-10T12:42:53.621Z,7.68
2018-12-10T12:45:21.001Z,7.77
2018-12-10T12:47:51.584Z,7.63
2018-12-10T12:50:19.030Z,7.55
2018-12-10T12:52:46.510Z,7.49
2018-12-10T12:55:13.991Z,7.55
2018-12-10T12:57:41.385Z,7.14
2018-12-10T13:00:08.988Z,6.85
2018-12-10T13:02:36.431Z,6.67
2018-12-10T13:05:04.099Z,6.71
2018-12-10T13:07:31.479Z,6.57
2018-12-10T13:09:59.844Z,6.54
2018-12-10T13:12:27.535Z,6.54
2018-12-10T13:14:55.880Z,6.80
2018-12-10T13:17:23.411Z,6.82
2018-12-10T13:19:51.931Z,6.96
2018-12-10T13:22:19.313Z,7.19
2018-12-10T13:24:46.705Z,7.24
2018-12-10T13:27:14.084Z,7.31
2018-12-10T13:29:41.474Z,7.27
2018-12-10T13:32:08.950Z,7.42
2018-12-10T13:34:36.338Z,7.24
2018-12-10T13:37:03.767Z,7.39
2018-12-10T13:39:31.156Z,7.31
2018-12-10T13:41:58.531Z,7.19
2018-12-10T13:44:25.915Z,7.27
2018-12-10T13:46:53.338Z,7.17
2018-12-10T13:49:20.828Z,7.21
2018-12-10T13:51:48.999Z,7.27
2018-12-10T13:54:16.385Z,7.36
2018-12-10T13:56:43.885Z,7.19
2018-12-10T13:59:11.317Z,7.11
2018-12-10T14:01:38.756Z,7.08
2018-12-10T14:04:08.104Z,7.11
2018-12-10T14:06:35.489Z,7.26
2018-12-10T14:09:07.935Z,6.97
2018-12-10T14:11:32.444Z,6.93
2018-12-10T14:13:59.834Z,6.79
2018-12-10T14:16:27.317Z,6.94
2018-12-10T14:18:54.683Z,6.81
2018-12-10T14:21:22.065Z,6.80
2018-12-10T14:23:49.491Z,7.01
2018-12-10T14:26:16.884Z,6.79
2018-12-10T14:28:44.318Z,6.85
2018-12-10T14:31:11.757Z,6.92
2018-12-10T14:33:39.119Z,7.00
2018-12-10T14:36:06.564Z,7.04
2018-12-10T14:38:33.987Z,6.87
2018-12-10T14:41:01.374Z,6.85
2018-12-10T14:43:28.840Z,6.78
2018-12-10T14:45:56.263Z,6.80
2018-12-10T14:48:23.711Z,6.77
2018-12-10T14:50:51.091Z,6.83
2018-12-10T14:53:18.482Z,6.83
2018-12-10T14:55:45.861Z,6.83
2018-12-10T14:58:13.255Z,6.88
2018-12-10T15:00:40.656Z,6.65
2018-12-10T15:03:08.097Z,6.78
2018-12-10T15:05:35.484Z,6.48
2018-12-10T15:08:02.963Z,6.55
2018-12-10T15:10:30.406Z,6.45
2018-12-10T15:12:57.808Z,6.58
2018-12-10T15:15:25.193Z,6.65
2018-12-10T15:17:52.603Z,6.73
2018-12-10T15:20:19.996Z,6.64
2018-12-10T15:22:47.379Z,6.58
2018-12-10T15:25:32.988Z,6.61
2018-12-10T15:28:00.382Z,6.71
2018-12-10T15:30:27.859Z,6.78
2018-12-10T15:32:57.210Z,6.82
2018-12-10T15:35:24.617Z,6.76
2018-12-10T15:37:52.011Z,6.76
2018-12-10T15:40:22.635Z,6.71
2018-12-10T15:42:50.052Z,6.91
2018-12-10T15:45:17.537Z,6.94
2018-12-10T15:47:44.943Z,6.90
2018-12-10T15:50:13.476Z,6.81
2018-12-10T15:52:40.880Z,6.70
2018-12-10T15:55:08.321Z,6.80
2018-12-10T15:57:35.766Z,6.92
2018-12-10T16:00:03.956Z,6.96
2018-12-10T16:02:31.365Z,6.87
2018-12-10T16:04:58.755Z,6.93
2018-12-10T16:07:26.148Z,6.60
2018-12-10T16:09:53.626Z,6.46
2018-12-10T16:12:21.009Z,6.57
2018-12-10T16:14:48.395Z,6.48
2018-12-10T16:17:15.782Z,6.60
2018-12-10T16:19:43.205Z,6.57
2018-12-10T16:22:10.596Z,6.47
2018-12-10T16:24:46.053Z,6.63
2018-12-10T16:27:13.596Z,6.68
2018-12-10T16:29:40.979Z,6.73
2018-12-10T16:32:22.899Z,6.77
2018-12-10T16:34:58.839Z,6.82
2018-12-10T16:37:29.476Z,6.87
2018-12-10T16:39:56.875Z,6.73
2018-12-10T16:42:24.267Z,6.67
2018-12-10T16:45:04.240Z,6.53
2018-12-10T16:47:31.702Z,6.26
2018-12-10T16:49:59.148Z,6.24
2018-12-10T16:52:26.553Z,6.27
2018-12-10T16:54:53.986Z,6.37
2018-12-10T16:57:21.369Z,6.21
2018-12-10T16:59:48.791Z,6.20
2018-12-10T17:02:16.197Z,6.19
2018-12-10T17:04:43.580Z,5.93
2018-12-10T17:07:10.980Z,6.06
2018-12-10T17:09:39.972Z,6.06
2018-12-10T17:12:07.545Z,6.00
2018-12-10T17:14:34.980Z,6.22
2018-12-10T17:17:04.425Z,5.98
2018-12-10T17:19:32.751Z,6.06
2018-12-10T17:22:00.150Z,5.95
2018-12-10T17:24:44.458Z,6.08
2018-12-10T17:27:12.208Z,6.00
2018-12-10T17:29:39.649Z,6.07
2018-12-10T17:32:13.396Z,6.10
2018-12-10T17:34:53.629Z,6.17
2018-12-10T17:40:20.356Z,6.13
2018-12-10T17:42:47.751Z,6.13
2018-12-10T17:45:15.215Z,6.08
2018-12-10T17:48:02.316Z,6.16
2018-12-10T17:53:47.360Z,6.30
2018-12-10T17:56:14.784Z,6.34
2018-12-10T17:58:44.000Z,6.35
2018-12-10T18:01:28.398Z,6.22
2018-12-10T18:07:00.141Z,6.01
2018-12-10T18:09:27.557Z,5.97
2018-12-10T18:12:01.371Z,6.08
2018-12-10T18:14:32.143Z,5.97
2018-12-10T18:20:05.363Z,5.87
2018-12-10T18:22:42.424Z,5.84
2018-12-10T18:25:09.852Z,5.83
2018-12-10T18:27:52.084Z,5.87
2018-12-10T18:30:22.844Z,5.90
2018-12-10T18:32:56.513Z,6.06
2018-12-10T18:35:27.332Z,5.91
2018-12-10T18:38:01.287Z,5.89
2018-12-10T18:40:28.724Z,5.86
2018-12-10T18:42:56.120Z,5.85
2018-12-10T18:45:23.556Z,5.94
2018-12-10T18:47:52.895Z,5.87
2018-12-10T18:53:26.190Z,5.98
2018-12-10T18:58:59.205Z,5.87
2018-12-10T19:01:30.500Z,6.01
2018-12-10T19:04:01.677Z,6.10
2018-12-10T19:06:40.306Z,6.01
2018-12-10T19:09:11.709Z,6.09
2018-12-10T19:11:45.557Z,5.91
2018-12-10T19:14:19.212Z,6.00
2018-12-10T19:16:53.165Z,5.85
2018-12-10T19:19:24.246Z,5.97
2018-12-10T19:21:55.207Z,5.96
2018-12-10T19:24:26.412Z,5.74
2018-12-10T19:26:57.311Z,5.85
2018-12-10T19:29:24.710Z,5.86
2018-12-10T19:31:59.432Z,5.78
2018-12-10T19:34:27.768Z,5.83
2018-12-10T19:36:58.238Z,5.75
2018-12-10T19:39:29.260Z,5.59
2018-12-10T19:42:02.677Z,5.69
2018-12-10T19:44:39.425Z,5.65
2018-12-10T19:47:26.434Z,5.46
2018-12-10T19:49:55.202Z,5.48
2018-12-10T19:52:35.201Z,5.47
2018-12-10T19:55:08.503Z,5.48
2018-12-10T19:57:35.880Z,5.56
2018-12-10T20:00:09.573Z,5.59
2018-12-10T20:02:43.240Z,5.55
2018-12-10T20:05:25.698Z,5.52
2018-12-10T20:07:54.704Z,5.52
2018-12-10T20:10:25.606Z,5.56
2018-12-10T20:13:01.546Z,5.56
2018-12-10T20:15:34.745Z,5.57
2018-12-10T20:18:07.880Z,5.61
2018-12-10T20:20:55.550Z,5.68
2018-12-10T20:23:22.945Z,5.50
2018-12-10T20:26:03.761Z,5.55
2018-12-10T20:28:35.358Z,5.60
2018-12-10T20:31:08.527Z,5.51
2018-12-10T20:33:37.756Z,5.52
2018-12-10T20:36:07.129Z,5.62
2018-12-10T20:38:39.022Z,5.65
2018-12-10T20:41:10.060Z,5.59
2018-12-10T20:43:43.869Z,5.67
2018-12-10T20:46:11.384Z,5.66
2018-12-10T20:54:57.288Z,5.73
2018-12-10T20:57:26.327Z,5.80
2018-12-10T20:59:59.690Z,5.83
2018-12-10T21:02:29.946Z,5.91
2018-12-10T21:11:01.481Z,5.63
2018-12-10T21:13:40.342Z,5.82
2018-12-10T21:16:14.357Z,5.87
2018-12-10T21:18:45.480Z,5.64
2018-12-10T21:21:16.696Z,5.75
2018-12-10T21:23:47.768Z,5.72
2018-12-10T21:26:26.667Z,5.77
2018-12-10T21:29:00.720Z,5.77
2018-12-10T21:31:33.857Z,5.85
2018-12-10T21:34:07.738Z,5.72
2018-12-10T21:36:41.022Z,5.88
2018-12-10T21:39:14.688Z,5.91
2018-12-10T21:41:45.799Z,6.04
2018-12-10T21:44:19.680Z,5.77
2018-12-10T21:46:53.743Z,5.91
2018-12-10T21:49:34.232Z,5.99
2018-12-10T21:52:08.804Z,5.88
2018-12-10T21:54:42.776Z,5.86
2018-12-10T21:57:11.998Z,5.78
2018-12-10T21:59:46.032Z,5.82
2018-12-10T22:02:19.240Z,5.87
2018-12-10T22:04:53.129Z,5.71
2018-12-10T22:07:26.484Z,5.84
2018-12-10T22:09:57.624Z,5.81
2018-12-10T22:12:26.856Z,5.97
2018-12-10T22:15:00.629Z,5.81
2018-12-10T22:17:33.928Z,5.77
2018-12-10T22:20:07.116Z,5.73
2018-12-10T22:22:40.252Z,5.84
2018-12-10T22:25:11.380Z,5.96
2018-12-10T22:27:45.357Z,5.88
2018-12-10T22:30:16.534Z,5.87
2018-12-10T22:32:50.413Z,5.67
2018-12-10T22:35:21.620Z,5.78
2018-12-10T22:37:55.420Z,5.87
2018-12-10T22:40:26.524Z,5.92
2018-12-10T22:42:57.658Z,5.98
2018-12-10T22:45:32.581Z,6.04
2018-12-10T22:48:05.717Z,5.98
2018-12-10T22:50:36.968Z,5.86
2018-12-10T22:53:10.788Z,5.80
2018-12-10T22:55:44.701Z,5.81
2018-12-10T22:58:18.481Z,5.94
2018-12-10T23:00:52.328Z,5.97
2018-12-10T23:03:26.372Z,5.97
2018-12-10T23:05:59.449Z,5.91
2018-12-10T23:08:33.489Z,5.97
2018-12-10T23:11:07.399Z,6.08
2018-12-10T23:13:36.704Z,6.02
2018-12-10T23:16:10.544Z,6.08
2018-12-10T23:18:41.751Z,5.93
2018-12-10T23:21:12.697Z,5.85
2018-12-10T23:23:46.523Z,5.88
2018-12-10T23:26:19.832Z,5.87
2018-12-10T23:28:49.040Z,6.00
2018-12-10T23:31:19.499Z,5.87
2018-12-10T23:33:55.152Z,5.95
2018-12-10T23:36:26.459Z,6.00
2018-12-10T23:39:00.212Z,6.02
2018-12-10T23:41:31.354Z,5.89
2018-12-10T23:44:04.944Z,5.98
2018-12-10T23:46:38.053Z,5.93
2018-12-10T23:49:11.133Z,5.88
2018-12-10T23:51:42.317Z,5.86
2018-12-10T23:54:16.183Z,6.21
2018-12-10T23:56:49.445Z,6.15
2018-12-10T23:59:22.800Z,6.03
